createdAt,value
2023-05-14T21:06:07.301Z,6.515
2023-05-14T21:07:07.354Z,5.938
2023-05-14T21:08:07.329Z,5.931
2023-05-14T21:09:07.333Z,5.936
2023-05-14T21:10:07.343Z,5.906
2023-05-14T21:11:07.363Z,5.888
2023-05-14T21:12:07.384Z,6.765
2023-05-14T21:13:07.412Z,6.605
2023-05-14T21:14:07.406Z,6.597
2023-05-14T21:15:07.419Z,6.618
2023-05-14T21:16:07.441Z,6.625
2023-05-14T21:17:07.425Z,6.614
2023-05-14T21:18:07.463Z,6.593
2023-05-14T21:19:07.458Z,6.595
2023-05-14T21:20:07.488Z,6.585
2023-05-14T21:21:07.458Z,6.573
2023-05-14T21:22:07.471Z,6.566
2023-05-14T21:23:07.489Z,6.581
2023-05-14T21:24:07.501Z,6.659
2023-05-14T21:25:07.519Z,6.673
2023-05-14T21:26:07.540Z,6.649
2023-05-14T21:27:07.559Z,6.696
2023-05-14T21:28:07.571Z,6.708
2023-05-14T21:29:07.576Z,6.704
2023-05-14T21:30:07.577Z,6.709
2023-05-14T21:31:07.611Z,6.674
2023-05-14T21:32:07.660Z,6.668
2023-05-14T21:33:07.716Z,6.679
2023-05-14T21:34:07.668Z,6.749
2023-05-14T21:35:07.635Z,6.748
2023-05-14T21:36:07.641Z,6.748
2023-05-14T21:37:07.662Z,6.717
2023-05-14T21:38:07.697Z,6.705
2023-05-14T21:39:07.743Z,6.74
2023-05-14T21:40:07.689Z,6.748
2023-05-14T21:41:07.687Z,6.771
2023-05-14T21:42:07.697Z,6.785
2023-05-14T21:43:07.775Z,6.767
2023-05-14T21:44:07.742Z,6.783
2023-05-14T21:45:07.706Z,6.786
2023-05-14T21:46:07.712Z,6.8
2023-05-14T21:47:07.719Z,6.821
2023-05-14T21:48:07.881Z,6.902
2023-05-14T21:49:07.804Z,6.895
2023-05-14T21:50:07.817Z,6.914
2023-05-14T21:51:07.742Z,6.901
2023-05-14T21:52:07.747Z,6.904
2023-05-14T21:53:07.842Z,6.93
2023-05-14T21:54:07.831Z,6.942
2023-05-14T21:55:07.837Z,6.93
2023-05-14T21:56:07.792Z,6.901
2023-05-14T21:57:07.819Z,6.906
2023-05-14T21:58:07.789Z,6.918
2023-05-14T21:59:07.850Z,6.905
2023-05-14T22:00:07.918Z,6.905
2023-05-14T22:01:07.912Z,6.915
2023-05-14T22:02:08.274Z,6.892
2023-05-14T22:03:08.064Z,6.914
2023-05-14T22:04:07.990Z,6.898
2023-05-14T22:05:07.921Z,6.897
2023-05-14T22:06:07.953Z,6.901
2023-05-14T22:07:07.964Z,6.901
2023-05-14T22:08:07.987Z,6.879
2023-05-14T22:09:07.980Z,6.883
2023-05-14T22:10:08.002Z,6.869
2023-05-14T22:11:08.031Z,6.885
2023-05-14T22:12:08.026Z,6.846
2023-05-14T22:13:08.042Z,6.88
2023-05-14T22:14:08.066Z,6.847
2023-05-14T22:15:08.077Z,6.835
2023-05-14T22:16:12.539Z,6.829
2023-05-14T22:17:07.124Z,6.818
2023-05-14T22:18:07.162Z,6.825
2023-05-14T22:19:07.161Z,6.826
2023-05-14T22:20:07.169Z,6.821
2023-05-14T22:21:07.242Z,6.853
2023-05-14T22:22:07.203Z,6.869
2023-05-14T22:23:07.221Z,6.849
2023-05-14T22:24:07.250Z,6.827
2023-05-14T22:25:07.260Z,6.827
2023-05-14T22:26:07.277Z,6.817
2023-05-14T22:27:07.285Z,6.815
2023-05-14T22:28:07.319Z,6.795
2023-05-14T22:29:07.332Z,6.766
2023-05-14T22:30:07.341Z,6.766
2023-05-14T22:31:07.380Z,6.758
2023-05-14T22:32:07.362Z,6.772
2023-05-14T22:33:07.502Z,6.753
2023-05-14T22:34:07.417Z,6.724
2023-05-14T22:35:07.444Z,6.722
2023-05-14T22:36:07.484Z,6.735
2023-05-14T22:37:07.489Z,6.724
2023-05-14T22:38:07.516Z,6.722
2023-05-14T22:39:07.545Z,6.726
2023-05-14T22:40:07.579Z,6.698
2023-05-14T22:41:07.598Z,6.673
2023-05-14T22:42:07.628Z,6.676
2023-05-14T22:43:07.654Z,6.671
2023-05-14T22:44:07.664Z,6.699
2023-05-14T22:45:07.681Z,6.658
2023-05-14T22:46:07.804Z,6.667
2023-05-14T22:47:07.737Z,6.669
2023-05-14T22:48:07.825Z,6.663
2023-05-14T22:49:07.755Z,6.67
2023-05-14T22:50:07.789Z,6.647
2023-05-14T22:51:07.782Z,6.646
2023-05-14T22:52:07.820Z,6.612
2023-05-14T22:53:07.811Z,6.607
2023-05-14T22:54:07.820Z,6.594
2023-05-14T22:55:07.823Z,6.574
2023-05-14T22:56:07.853Z,6.571
2023-05-14T22:57:07.965Z,6.552
2023-05-14T22:58:07.904Z,6.558
2023-05-14T22:59:08.038Z,6.585
2023-05-14T23:00:08.019Z,6.585
2023-05-14T23:01:08.028Z,6.547
2023-05-14T23:02:08.182Z,6.547
2023-05-14T23:03:08.087Z,6.559
2023-05-14T23:04:08.096Z,6.54
2023-05-14T23:05:07.093Z,6.528
2023-05-14T23:06:07.118Z,6.525
2023-05-14T23:07:07.135Z,6.504
2023-05-14T23:08:07.160Z,6.483
2023-05-14T23:09:07.185Z,6.475
2023-05-14T23:10:07.216Z,6.494
2023-05-14T23:11:07.228Z,6.538
2023-05-14T23:12:07.260Z,6.493
2023-05-14T23:13:07.296Z,6.482
2023-05-14T23:14:07.292Z,6.468
2023-05-14T23:15:07.324Z,6.438
2023-05-14T23:16:07.339Z,6.425
2023-05-14T23:17:07.358Z,6.423
2023-05-14T23:18:07.443Z,6.441
2023-05-14T23:19:07.612Z,6.419
2023-05-14T23:20:07.397Z,6.426
2023-05-14T23:21:07.447Z,6.398
2023-05-14T23:22:07.445Z,6.359
2023-05-14T23:23:07.473Z,6.394
2023-05-14T23:24:07.495Z,6.394
2023-05-14T23:25:07.520Z,6.394
2023-05-14T23:26:07.544Z,6.392
2023-05-14T23:27:07.598Z,6.408
2023-05-14T23:28:07.600Z,6.414
2023-05-14T23:29:07.626Z,6.381
2023-05-14T23:30:07.660Z,6.362
2023-05-14T23:31:07.678Z,6.355
2023-05-14T23:32:07.840Z,6.357
2023-05-14T23:33:07.775Z,6.35
2023-05-14T23:34:07.755Z,6.341
2023-05-14T23:35:07.787Z,6.335
2023-05-14T23:36:07.817Z,6.329
2023-05-14T23:37:07.823Z,6.296
2023-05-14T23:38:07.860Z,6.232
2023-05-14T23:39:07.898Z,6.274
2023-05-14T23:40:07.899Z,6.271
2023-05-14T23:41:07.931Z,6.267
2023-05-14T23:42:07.950Z,6.281
2023-05-14T23:43:07.977Z,6.276
2023-05-14T23:44:07.978Z,6.249
2023-05-14T23:45:08.002Z,6.253
2023-05-14T23:46:08.056Z,6.245
2023-05-14T23:47:08.031Z,6.254
2023-05-14T23:48:08.070Z,6.22
2023-05-14T23:49:08.056Z,6.256
2023-05-14T23:50:08.056Z,6.225
2023-05-14T23:51:08.089Z,6.252
2023-05-14T23:52:07.115Z,6.267
2023-05-14T23:53:07.147Z,6.295
2023-05-14T23:54:07.174Z,6.285
2023-05-14T23:55:07.190Z,6.29
2023-05-14T23:56:07.205Z,6.286
2023-05-14T23:57:07.233Z,6.291
2023-05-14T23:58:07.257Z,6.246
2023-05-14T23:59:07.277Z,6.235
